createdAt,value
2019-04-30T00:00:06.927Z,75.53
2019-04-30T00:01:07.421Z,75.43
2019-04-30T00:02:06.905Z,75.70
2019-04-30T00:03:06.859Z,75.12
2019-04-30T00:04:05.891Z,75.12
2019-04-30T00:05:10.001Z,75.22
2019-04-30T00:06:07.473Z,75.63
2019-04-30T00:07:10.114Z,76.15
2019-04-30T00:08:06.849Z,75.32
2019-04-30T00:09:09.698Z,75.53
2019-04-30T00:10:06.818Z,75.43
2019-04-30T00:11:05.809Z,75.95
2019-04-30T00:12:05.799Z,75.63
2019-04-30T00:13:06.146Z,75.74
2019-04-30T00:14:05.790Z,76.18
2019-04-30T00:15:06.239Z,75.88
2019-04-30T00:16:05.755Z,75.98
2019-04-30T00:17:06.325Z,76.29
2019-04-30T00:18:05.753Z,76.09
2019-04-30T00:19:06.194Z,75.36
2019-04-30T00:20:05.711Z,76.09
2019-04-30T00:21:10.056Z,76.18
2019-04-30T00:22:06.689Z,76.29
2019-04-30T00:23:05.685Z,76.09
2019-04-30T00:24:10.137Z,76.18
2019-04-30T00:25:05.658Z,76.60
2019-04-30T00:26:10.121Z,76.81
2019-04-30T00:27:05.637Z,76.70
2019-04-30T00:28:08.732Z,76.70
2019-04-30T00:29:05.627Z,76.29
2019-04-30T00:30:08.946Z,76.18
2019-04-30T00:31:05.594Z,75.98
2019-04-30T00:32:07.868Z,76.70
2019-04-30T00:33:05.831Z,76.29
2019-04-30T00:34:05.572Z,76.18
2019-04-30T00:35:07.326Z,76.39
2019-04-30T00:36:06.539Z,76.18
2019-04-30T00:37:07.387Z,76.09
2019-04-30T00:38:06.519Z,76.81
2019-04-30T00:39:07.158Z,76.60
2019-04-30T00:40:06.496Z,76.81
2019-04-30T00:41:06.865Z,76.39
2019-04-30T00:42:05.474Z,76.81
2019-04-30T00:43:09.040Z,76.60
2019-04-30T00:44:05.484Z,76.70
2019-04-30T00:45:09.573Z,76.50
2019-04-30T00:46:05.433Z,76.81
2019-04-30T00:47:08.243Z,76.50
2019-04-30T00:48:05.986Z,76.18
2019-04-30T00:49:09.850Z,76.53
2019-04-30T00:50:06.388Z,76.70
2019-04-30T00:51:08.933Z,76.53
2019-04-30T00:52:06.366Z,76.84
2019-04-30T00:53:12.215Z,76.84
2019-04-30T00:54:06.354Z,76.95
2019-04-30T00:55:08.906Z,76.81
2019-04-30T00:56:05.790Z,76.53
2019-04-30T00:57:07.588Z,76.74
2019-04-30T00:58:05.906Z,76.84
2019-04-30T00:59:07.027Z,76.95
2019-04-30T01:00:06.280Z,76.53
2019-04-30T01:01:08.142Z,76.84
2019-04-30T01:02:06.073Z,77.26
2019-04-30T01:03:08.368Z,76.98
2019-04-30T01:04:05.263Z,76.64
2019-04-30T01:05:08.920Z,77.26
2019-04-30T01:06:05.462Z,76.84
2019-04-30T01:07:08.484Z,77.15
2019-04-30T01:08:07.017Z,77.19
2019-04-30T01:09:08.417Z,77.26
2019-04-30T01:10:05.214Z,77.15
2019-04-30T01:11:09.430Z,76.74
2019-04-30T01:12:05.583Z,76.88
2019-04-30T01:13:08.079Z,77.19
2019-04-30T01:14:06.142Z,77.19
2019-04-30T01:15:06.442Z,77.29
2019-04-30T01:16:06.108Z,77.09
2019-04-30T01:17:08.876Z,77.09
2019-04-30T01:18:06.090Z,77.60
2019-04-30T01:19:05.769Z,77.19
2019-04-30T01:20:05.067Z,77.50
2019-04-30T01:21:09.772Z,77.29
2019-04-30T01:22:06.044Z,76.88
2019-04-30T01:23:08.009Z,76.98
2019-04-30T01:24:06.033Z,77.29
2019-04-30T01:25:11.707Z,77.39
2019-04-30T01:26:06.011Z,77.39
2019-04-30T01:27:06.718Z,77.53
2019-04-30T01:28:04.981Z,77.50
2019-04-30T01:29:04.979Z,77.50
2019-04-30T01:30:04.961Z,77.33
2019-04-30T01:31:04.954Z,77.70
2019-04-30T01:32:04.943Z,77.91
2019-04-30T01:33:04.929Z,77.33
2019-04-30T01:34:09.341Z,77.12
2019-04-30T01:35:05.908Z,77.39
2019-04-30T01:36:09.558Z,77.39
2019-04-30T01:37:05.886Z,77.50
2019-04-30T01:38:11.170Z,77.50
2019-04-30T01:39:05.873Z,77.53
2019-04-30T01:40:10.585Z,77.43
2019-04-30T01:41:05.842Z,77.19
2019-04-30T01:42:09.892Z,77.43
2019-04-30T01:43:05.828Z,77.70
2019-04-30T01:44:08.687Z,77.53
2019-04-30T01:45:05.797Z,78.26
2019-04-30T01:46:09.403Z,78.16
2019-04-30T01:47:05.776Z,78.05
2019-04-30T01:48:08.833Z,78.05
2019-04-30T01:49:05.799Z,78.05
2019-04-30T01:50:05.087Z,78.05
2019-04-30T01:51:04.734Z,78.05
2019-04-30T01:52:04.722Z,77.95
2019-04-30T01:53:08.872Z,78.16
2019-04-30T01:54:05.704Z,78.36
2019-04-30T01:55:04.706Z,78.16
2019-04-30T01:56:04.684Z,78.36
2019-04-30T01:57:04.673Z,77.95
2019-04-30T01:58:04.659Z,78.26
2019-04-30T01:59:04.649Z,78.16
2019-04-30T02:00:04.648Z,77.53
2019-04-30T02:01:04.630Z,77.95
2019-04-30T02:02:04.622Z,78.16
2019-04-30T02:03:04.607Z,77.95
2019-04-30T02:04:04.596Z,77.95
2019-04-30T02:05:04.594Z,78.05
2019-04-30T02:06:04.577Z,77.95
2019-04-30T02:07:04.569Z,78.40
2019-04-30T02:08:04.554Z,77.88
2019-04-30T02:09:04.559Z,77.98
2019-04-30T02:10:04.541Z,77.98
2019-04-30T02:11:04.522Z,77.98
2019-04-30T02:12:04.516Z,78.09
2019-04-30T02:13:04.502Z,78.71
2019-04-30T02:14:04.492Z,78.30
2019-04-30T02:15:04.487Z,78.30
2019-04-30T02:16:04.469Z,78.19
2019-04-30T02:17:04.457Z,78.19
2019-04-30T02:18:04.449Z,77.88
2019-04-30T02:19:04.436Z,78.40
2019-04-30T02:20:04.439Z,78.30
2019-04-30T02:21:04.416Z,77.98
2019-04-30T02:22:04.406Z,78.09
2019-04-30T02:23:04.394Z,78.19
2019-04-30T02:24:04.383Z,78.30
2019-04-30T02:25:04.385Z,78.30
2019-04-30T02:26:04.362Z,78.50
2019-04-30T02:27:04.351Z,78.30
2019-04-30T02:28:04.361Z,78.19
2019-04-30T02:29:04.332Z,78.19
2019-04-30T02:30:04.492Z,77.78
2019-04-30T02:31:04.311Z,78.40
2019-04-30T02:32:04.302Z,78.19
2019-04-30T02:33:04.292Z,78.09
2019-04-30T02:34:04.279Z,78.19
2019-04-30T02:35:04.313Z,78.19
2019-04-30T02:36:04.272Z,78.30
2019-04-30T02:37:04.251Z,78.19
2019-04-30T02:38:04.238Z,78.19
2019-04-30T02:39:04.226Z,78.12
2019-04-30T02:40:04.217Z,78.02
2019-04-30T02:41:04.213Z,78.75
2019-04-30T02:42:04.194Z,78.23
2019-04-30T02:43:04.192Z,78.33
2019-04-30T02:44:04.183Z,78.40
2019-04-30T02:45:04.312Z,78.33
2019-04-30T02:46:04.161Z,78.85
2019-04-30T02:47:04.143Z,78.44
2019-04-30T02:48:04.136Z,78.54
2019-04-30T02:49:04.126Z,78.23
2019-04-30T02:50:15.363Z,78.96
2019-04-30T02:51:05.111Z,78.75
2019-04-30T02:52:04.100Z,79.16
2019-04-30T02:53:04.080Z,78.96
2019-04-30T02:54:04.076Z,79.16
2019-04-30T02:55:04.060Z,79.06
2019-04-30T02:56:04.054Z,78.85
2019-04-30T02:57:04.038Z,78.64
2019-04-30T02:58:04.027Z,79.41
2019-04-30T02:59:04.128Z,78.99
2019-04-30T03:00:04.005Z,79.10
2019-04-30T03:01:04.005Z,78.99
2019-04-30T03:02:03.983Z,79.82
2019-04-30T03:03:03.974Z,79.71
2019-04-30T03:04:03.960Z,79.92
2019-04-30T03:05:03.951Z,80.02
2019-04-30T03:06:03.943Z,79.71
2019-04-30T03:07:03.943Z,79.82
2019-04-30T03:08:03.922Z,79.92
2019-04-30T03:09:03.909Z,79.41
2019-04-30T03:10:03.901Z,79.92
2019-04-30T03:11:03.887Z,79.51
2019-04-30T03:12:03.889Z,79.82
2019-04-30T03:13:03.867Z,79.71
2019-04-30T03:14:03.857Z,80.02
2019-04-30T03:15:03.846Z,80.06
2019-04-30T03:16:03.837Z,79.61
2019-04-30T03:17:03.856Z,80.16
2019-04-30T03:18:03.817Z,81.41
2019-04-30T03:19:03.804Z,79.75
2019-04-30T03:20:03.834Z,79.75
2019-04-30T03:21:03.787Z,80.16
2019-04-30T03:22:03.779Z,79.79
2019-04-30T03:23:03.765Z,80.37
2019-04-30T03:24:03.753Z,80.93
2019-04-30T03:25:03.741Z,81.04
2019-04-30T03:26:03.730Z,80.93
2019-04-30T03:27:03.762Z,81.56
2019-04-30T03:28:03.708Z,81.14
2019-04-30T03:29:03.698Z,80.62
2019-04-30T03:30:03.693Z,80.41
2019-04-30T03:31:04.852Z,80.76
2019-04-30T03:32:03.837Z,80.73
2019-04-30T03:33:03.674Z,80.97
2019-04-30T03:34:03.646Z,81.18
2019-04-30T03:35:03.801Z,80.62
2019-04-30T03:36:03.638Z,80.66
2019-04-30T03:37:03.614Z,80.83
2019-04-30T03:38:03.611Z,81.45
2019-04-30T03:39:03.595Z,80.73
2019-04-30T03:40:03.587Z,81.14
2019-04-30T03:41:03.577Z,81.14
2019-04-30T03:42:03.565Z,81.35
2019-04-30T03:43:03.567Z,81.45
2019-04-30T03:44:17.177Z,81.18
2019-04-30T03:45:04.532Z,80.73
2019-04-30T03:46:03.543Z,80.14
2019-04-30T03:47:03.518Z,80.52
2019-04-30T03:48:03.511Z,81.14
2019-04-30T03:49:03.488Z,79.90
2019-04-30T03:50:03.477Z,81.45
2019-04-30T03:51:03.468Z,80.21
2019-04-30T03:52:03.459Z,80.21
2019-04-30T03:53:03.486Z,80.73
2019-04-30T03:54:03.436Z,80.52
2019-04-30T03:55:03.431Z,80.52
2019-04-30T03:56:03.415Z,80.10
2019-04-30T03:57:03.421Z,80.16
2019-04-30T03:58:03.394Z,79.03
2019-04-30T03:59:03.397Z,78.47
2019-04-30T04:00:03.381Z,78.27
2019-04-30T04:01:03.364Z,77.95
2019-04-30T04:02:03.350Z,77.50
2019-04-30T04:03:03.341Z,77.54
2019-04-30T04:04:03.338Z,77.33
2019-04-30T04:05:03.321Z,77.54
2019-04-30T04:06:03.308Z,77.33
2019-04-30T04:07:03.297Z,77.99
2019-04-30T04:08:03.292Z,77.95
2019-04-30T04:09:03.287Z,78.06
2019-04-30T04:10:03.270Z,78.20
2019-04-30T04:11:03.261Z,78.30
2019-04-30T04:12:03.244Z,78.41
2019-04-30T04:13:03.234Z,78.20
2019-04-30T04:14:03.230Z,78.51
2019-04-30T04:15:03.960Z,78.30
2019-04-30T04:16:03.202Z,77.99
2019-04-30T04:17:03.195Z,77.44
2019-04-30T04:18:03.181Z,77.47
2019-04-30T04:19:03.223Z,78.27
2019-04-30T04:20:03.159Z,78.51
2019-04-30T04:21:12.177Z,78.27
2019-04-30T04:22:04.330Z,77.64
2019-04-30T04:23:03.128Z,77.33
2019-04-30T04:24:03.126Z,77.09
2019-04-30T04:25:03.108Z,76.88
2019-04-30T04:26:03.095Z,76.12
2019-04-30T04:27:03.093Z,76.02
2019-04-30T04:28:03.075Z,76.26
2019-04-30T04:29:03.072Z,76.12
2019-04-30T04:30:03.054Z,76.43
2019-04-30T04:31:03.045Z,76.12
2019-04-30T04:32:03.033Z,76.23
2019-04-30T04:33:03.021Z,76.53
2019-04-30T04:34:03.019Z,76.53
2019-04-30T04:35:02.998Z,75.40
2019-04-30T04:36:02.988Z,76.12
2019-04-30T04:37:02.978Z,76.02
2019-04-30T04:38:02.974Z,76.02
2019-04-30T04:39:02.966Z,76.12
2019-04-30T04:40:02.945Z,76.02
2019-04-30T04:41:03.188Z,76.02
2019-04-30T04:42:02.923Z,76.23
2019-04-30T04:43:02.912Z,76.19
2019-04-30T04:44:02.942Z,75.88
2019-04-30T04:45:02.892Z,76.09
2019-04-30T04:46:02.884Z,75.98
2019-04-30T04:47:02.867Z,75.46
2019-04-30T04:48:02.857Z,75.32
2019-04-30T04:49:02.845Z,74.91
2019-04-30T04:50:02.848Z,74.74
2019-04-30T04:51:02.828Z,75.02
2019-04-30T04:52:02.814Z,74.40
2019-04-30T04:53:02.810Z,74.02
2019-04-30T04:54:03.391Z,72.57
2019-04-30T04:55:02.792Z,69.49
2019-04-30T04:56:02.778Z,64.84
2019-04-30T04:57:13.961Z,61.13
2019-04-30T04:58:03.749Z,59.50
2019-04-30T04:59:02.739Z,57.58
2019-04-30T05:00:07.370Z,55.49
2019-04-30T05:01:03.720Z,54.33
2019-04-30T05:02:02.706Z,53.06
2019-04-30T05:03:02.697Z,52.62
2019-04-30T05:04:02.685Z,51.48
2019-04-30T05:05:02.688Z,50.74
2019-04-30T05:06:02.923Z,51.03
2019-04-30T05:07:02.654Z,49.15
2019-04-30T05:08:02.641Z,49.43
2019-04-30T05:09:02.631Z,48.49
2019-04-30T05:10:02.647Z,48.69
2019-04-30T05:11:02.611Z,47.88
2019-04-30T05:12:02.599Z,47.86
2019-04-30T05:13:02.589Z,47.75
2019-04-30T05:14:02.579Z,47.53
2019-04-30T05:15:02.577Z,47.51
2019-04-30T05:16:02.558Z,46.80
2019-04-30T05:17:02.546Z,46.19
2019-04-30T05:18:02.537Z,46.95
2019-04-30T05:19:02.525Z,45.72
2019-04-30T05:20:02.523Z,45.72
2019-04-30T05:21:02.513Z,44.68
2019-04-30T05:22:02.506Z,44.66
2019-04-30T05:23:02.483Z,44.24
2019-04-30T05:24:02.473Z,43.24
2019-04-30T05:25:02.473Z,44.10
2019-04-30T05:26:02.453Z,45.01
2019-04-30T05:27:02.446Z,43.87
2019-04-30T05:28:02.432Z,44.06
2019-04-30T05:29:02.421Z,44.56
2019-04-30T05:30:02.412Z,43.49
2019-04-30T05:31:02.412Z,44.50
2019-04-30T05:32:02.391Z,45.13
2019-04-30T05:33:02.387Z,44.60
2019-04-30T05:34:02.370Z,44.26
2019-04-30T05:35:02.363Z,43.81
2019-04-30T05:36:02.358Z,42.66
2019-04-30T05:37:02.339Z,41.83
2019-04-30T05:38:02.331Z,42.13
2019-04-30T05:39:02.323Z,40.19
2019-04-30T05:40:02.308Z,41.02
2019-04-30T05:41:02.307Z,41.58
2019-04-30T05:42:02.288Z,44.06
2019-04-30T05:43:02.278Z,43.98
2019-04-30T05:44:02.304Z,43.73
2019-04-30T05:45:02.270Z,43.30
2019-04-30T05:46:02.255Z,43.30
2019-04-30T05:47:02.238Z,42.58
2019-04-30T05:48:02.229Z,41.95
2019-04-30T05:49:02.218Z,42.21
2019-04-30T05:50:02.209Z,43.91
2019-04-30T05:51:02.205Z,43.41
2019-04-30T05:52:02.186Z,43.35
2019-04-30T05:53:02.176Z,43.75
2019-04-30T05:54:02.168Z,43.91
2019-04-30T05:55:02.156Z,44.07
2019-04-30T05:56:03.300Z,42.88
2019-04-30T05:57:02.139Z,42.54
2019-04-30T05:58:02.129Z,41.39
2019-04-30T05:59:02.120Z,40.46
2019-04-30T06:00:02.117Z,39.43
2019-04-30T06:01:02.116Z,39.13
2019-04-30T06:02:02.091Z,39.41
2019-04-30T06:03:02.079Z,38.12
2019-04-30T06:04:02.069Z,39.77
2019-04-30T06:05:02.060Z,39.67
2019-04-30T06:06:02.058Z,40.76
2019-04-30T06:07:02.040Z,39.81
2019-04-30T06:08:02.031Z,39.41
2019-04-30T06:09:06.671Z,39.03
2019-04-30T06:10:03.011Z,39.81
2019-04-30T06:11:02.014Z,39.17
2019-04-30T06:12:01.991Z,37.74
2019-04-30T06:13:01.985Z,37.73
2019-04-30T06:14:01.971Z,38.11
2019-04-30T06:15:01.961Z,37.93
2019-04-30T06:16:01.963Z,36.82
2019-04-30T06:17:01.943Z,37.38
2019-04-30T06:18:10.853Z,39.85
2019-04-30T06:19:02.923Z,39.21
2019-04-30T06:20:01.920Z,39.01
2019-04-30T06:21:01.944Z,38.37
2019-04-30T06:22:07.560Z,37.26
2019-04-30T06:23:02.883Z,37.56
2019-04-30T06:24:01.874Z,38.57
2019-04-30T06:25:01.865Z,37.95
2019-04-30T06:26:09.671Z,37.45
2019-04-30T06:27:02.856Z,37.85
2019-04-30T06:28:01.841Z,38.01
2019-04-30T06:29:01.830Z,36.08
2019-04-30T06:30:01.817Z,34.99
2019-04-30T06:31:01.811Z,35.98
2019-04-30T06:32:01.814Z,36.52
2019-04-30T06:33:01.789Z,36.05
2019-04-30T06:34:01.782Z,38.08
2019-04-30T06:35:01.771Z,38.17
2019-04-30T06:36:01.760Z,37.06
2019-04-30T06:37:01.760Z,37.65
2019-04-30T06:38:01.744Z,37.34
2019-04-30T06:39:01.731Z,37.41
2019-04-30T06:40:01.722Z,35.48
2019-04-30T06:41:01.717Z,35.98
2019-04-30T06:42:06.829Z,36.39
2019-04-30T06:43:02.689Z,37.07
2019-04-30T06:44:01.682Z,37.04
2019-04-30T06:45:01.674Z,37.21
2019-04-30T06:46:01.662Z,35.97
2019-04-30T06:47:01.662Z,35.25
2019-04-30T06:48:01.652Z,35.83
2019-04-30T06:49:01.632Z,35.44
2019-04-30T06:50:01.625Z,35.44
2019-04-30T06:51:01.620Z,35.35
2019-04-30T06:52:01.614Z,35.83
2019-04-30T06:53:01.839Z,35.01
2019-04-30T06:54:01.586Z,34.51
2019-04-30T06:55:01.578Z,34.83
2019-04-30T06:56:01.565Z,34.22
2019-04-30T06:57:01.565Z,34.63
2019-04-30T06:58:11.985Z,34.22
2019-04-30T06:59:02.533Z,33.44
2019-04-30T07:00:01.524Z,35.46
2019-04-30T07:01:01.515Z,35.36
2019-04-30T07:02:01.513Z,35.35
2019-04-30T07:03:01.495Z,35.41
2019-04-30T07:04:01.490Z,35.71
2019-04-30T07:05:01.479Z,34.81
2019-04-30T07:06:01.464Z,34.56
2019-04-30T07:07:01.464Z,35.16
2019-04-30T07:08:08.825Z,35.78
2019-04-30T07:09:02.435Z,34.99
2019-04-30T07:10:01.426Z,35.68
2019-04-30T07:11:07.419Z,35.16
2019-04-30T07:12:02.498Z,35.64
2019-04-30T07:13:01.393Z,34.54
2019-04-30T07:14:01.382Z,34.26
2019-04-30T07:15:01.371Z,35.41
2019-04-30T07:16:01.365Z,35.86
2019-04-30T07:17:01.351Z,37.38
2019-04-30T07:18:01.350Z,36.89
2019-04-30T07:19:01.331Z,37.90
2019-04-30T07:20:01.323Z,37.73
2019-04-30T07:21:01.312Z,37.71
2019-04-30T07:22:01.303Z,35.66
2019-04-30T07:23:03.292Z,35.75
2019-04-30T07:24:01.278Z,36.46
2019-04-30T07:25:01.267Z,37.09
2019-04-30T07:26:01.259Z,38.40
2019-04-30T07:27:02.851Z,37.85
2019-04-30T07:28:01.244Z,39.77
2019-04-30T07:29:02.562Z,40.05
2019-04-30T07:30:01.222Z,37.82
2019-04-30T07:31:11.350Z,37.51
2019-04-30T07:32:02.194Z,37.31
2019-04-30T07:33:01.191Z,37.43
2019-04-30T07:34:01.189Z,38.44
2019-04-30T07:35:01.161Z,37.73
2019-04-30T07:36:01.792Z,38.15
2019-04-30T07:37:11.824Z,40.48
2019-04-30T07:38:04.884Z,39.99
2019-04-30T07:39:01.120Z,39.10
2019-04-30T07:40:01.108Z,39.50
2019-04-30T07:41:01.097Z,39.70
2019-04-30T07:42:01.087Z,40.84
2019-04-30T07:43:01.084Z,39.75
2019-04-30T07:44:01.065Z,40.27
2019-04-30T07:45:01.054Z,41.60
2019-04-30T07:46:01.049Z,42.41
2019-04-30T07:47:02.129Z,41.50
2019-04-30T07:48:01.041Z,40.49
2019-04-30T07:49:01.014Z,41.30
2019-04-30T07:50:01.034Z,41.93
2019-04-30T07:51:00.990Z,42.55
2019-04-30T07:52:01.932Z,42.57
2019-04-30T07:53:05.721Z,44.73
2019-04-30T07:54:01.961Z,43.18
2019-04-30T07:55:00.948Z,43.69
2019-04-30T07:56:02.202Z,41.66
2019-04-30T07:57:00.945Z,40.36
2019-04-30T07:58:00.921Z,42.00
2019-04-30T07:59:02.835Z,44.24
2019-04-30T08:00:00.902Z,43.32
2019-04-30T08:01:00.883Z,43.91
2019-04-30T08:02:10.168Z,43.38
2019-04-30T08:03:01.861Z,42.88
2019-04-30T08:04:00.861Z,42.68
2019-04-30T08:05:00.842Z,43.16
2019-04-30T08:06:00.960Z,42.47
2019-04-30T08:07:00.904Z,41.66
2019-04-30T08:08:16.255Z,41.86
2019-04-30T08:09:02.251Z,40.36
2019-04-30T08:10:00.786Z,40.87
2019-04-30T08:11:00.775Z,42.00
2019-04-30T08:12:00.842Z,41.60
2019-04-30T08:13:08.531Z,41.30
2019-04-30T08:14:02.137Z,43.32
2019-04-30T08:15:00.732Z,44.13
2019-04-30T08:16:00.724Z,42.92
2019-04-30T08:17:00.712Z,41.91
2019-04-30T08:18:05.526Z,42.51
2019-04-30T08:19:01.699Z,42.00
2019-04-30T08:20:00.680Z,44.13
2019-04-30T08:21:01.045Z,42.11
2019-04-30T08:22:00.661Z,41.72
2019-04-30T08:23:13.299Z,40.18
2019-04-30T08:24:01.645Z,40.40
2019-04-30T08:25:00.625Z,40.01
2019-04-30T08:26:00.618Z,40.14
2019-04-30T08:27:01.259Z,40.64
2019-04-30T08:28:00.595Z,43.59
2019-04-30T08:29:00.594Z,41.94
2019-04-30T08:30:00.576Z,41.24
2019-04-30T08:31:00.563Z,41.62
2019-04-30T08:32:00.554Z,41.72
2019-04-30T08:33:00.541Z,41.30
2019-04-30T08:34:00.539Z,41.60
2019-04-30T08:35:01.232Z,38.56
2019-04-30T08:36:00.985Z,40.38
2019-04-30T08:37:12.696Z,40.18
2019-04-30T08:38:01.486Z,39.57
2019-04-30T08:39:00.497Z,39.35
2019-04-30T08:40:03.389Z,38.56
2019-04-30T08:41:00.907Z,39.75
2019-04-30T08:42:00.443Z,38.34
2019-04-30T08:43:00.432Z,38.12
2019-04-30T08:44:00.463Z,37.81
2019-04-30T08:45:00.416Z,37.61
2019-04-30T08:46:00.406Z,37.59
2019-04-30T08:47:00.391Z,36.15
2019-04-30T08:48:00.380Z,36.46
2019-04-30T08:49:00.635Z,36.36
2019-04-30T08:50:02.607Z,36.58
2019-04-30T08:51:00.348Z,36.49
2019-04-30T08:52:00.339Z,36.41
2019-04-30T08:53:00.732Z,35.90
2019-04-30T08:54:00.316Z,37.81
2019-04-30T08:55:12.748Z,35.38
2019-04-30T08:56:01.293Z,35.57
2019-04-30T08:57:00.285Z,35.75
2019-04-30T08:58:09.331Z,37.37
2019-04-30T08:59:01.258Z,38.59
2019-04-30T09:00:00.259Z,36.14
2019-04-30T09:01:00.242Z,35.41
2019-04-30T09:02:12.727Z,35.50
2019-04-30T09:03:01.217Z,35.48
2019-04-30T09:04:00.207Z,34.67
2019-04-30T09:05:00.508Z,34.37
2019-04-30T09:06:00.196Z,33.67
2019-04-30T09:07:00.174Z,34.37
2019-04-30T09:08:00.164Z,33.76
2019-04-30T09:09:00.153Z,34.17
2019-04-30T09:10:01.276Z,35.68
2019-04-30T09:11:00.133Z,34.47
2019-04-30T09:12:00.123Z,33.54
2019-04-30T09:13:00.111Z,35.77
2019-04-30T09:14:00.103Z,34.33
2019-04-30T09:15:00.098Z,32.40
2019-04-30T09:16:00.079Z,31.70
2019-04-30T09:17:00.068Z,31.88
2019-04-30T09:18:05.925Z,32.30
2019-04-30T09:19:01.047Z,32.70
2019-04-30T09:20:00.053Z,34.12
2019-04-30T09:21:06.113Z,36.04
2019-04-30T09:22:01.016Z,31.39
2019-04-30T09:23:00.004Z,34.12
2019-04-30T09:23:59.994Z,33.61
2019-04-30T09:24:59.991Z,32.59
2019-04-30T09:25:59.971Z,32.49
2019-04-30T09:26:59.961Z,32.18
2019-04-30T09:27:59.952Z,34.39
2019-04-30T09:28:59.947Z,34.07
2019-04-30T09:29:59.943Z,34.17
2019-04-30T09:30:59.921Z,31.85
2019-04-30T09:31:59.908Z,30.46
2019-04-30T09:32:59.896Z,31.78
2019-04-30T09:34:00.895Z,32.59
2019-04-30T09:34:59.907Z,31.56
2019-04-30T09:35:59.867Z,31.58
2019-04-30T09:36:59.859Z,32.08
2019-04-30T09:38:01.859Z,34.08
2019-04-30T09:39:01.469Z,33.59
2019-04-30T09:39:59.823Z,31.38
2019-04-30T09:40:59.823Z,30.07
2019-04-30T09:41:59.804Z,31.78
2019-04-30T09:43:00.406Z,34.50
2019-04-30T09:43:59.853Z,35.60
2019-04-30T09:44:59.766Z,32.78
2019-04-30T09:45:59.765Z,32.87
2019-04-30T09:46:59.748Z,33.67
2019-04-30T09:47:59.735Z,32.66
2019-04-30T09:48:59.954Z,32.56
2019-04-30T09:49:59.798Z,31.53
2019-04-30T09:51:00.801Z,33.65
2019-04-30T09:52:00.134Z,31.53
2019-04-30T09:53:00.405Z,33.13
2019-04-30T09:54:03.177Z,32.53
2019-04-30T09:54:59.992Z,33.35
2019-04-30T09:55:59.778Z,30.31
2019-04-30T09:56:59.637Z,30.31
2019-04-30T09:57:59.626Z,30.31
2019-04-30T09:58:59.617Z,32.41
2019-04-30T10:00:00.619Z,29.90
2019-04-30T10:00:59.603Z,29.81
2019-04-30T10:01:59.585Z,30.71
2019-04-30T10:03:00.411Z,31.22
2019-04-30T10:04:00.461Z,31.10
2019-04-30T10:05:00.030Z,30.28
2019-04-30T10:05:59.552Z,28.58
2019-04-30T10:06:59.696Z,28.99
2019-04-30T10:07:59.553Z,32.31
2019-04-30T10:08:59.779Z,30.99
2019-04-30T10:09:59.503Z,31.40
2019-04-30T10:10:59.497Z,30.40
2019-04-30T10:11:59.705Z,31.62
2019-04-30T10:12:59.468Z,31.22
2019-04-30T10:13:59.455Z,31.23
2019-04-30T10:14:59.443Z,31.87
2019-04-30T10:15:59.443Z,32.29
2019-04-30T10:16:59.562Z,30.57
2019-04-30T10:17:59.411Z,30.28
2019-04-30T10:19:01.401Z,33.19
2019-04-30T10:19:59.390Z,33.28
2019-04-30T10:21:00.899Z,31.24
2019-04-30T10:21:59.370Z,32.26
2019-04-30T10:22:59.657Z,31.84
2019-04-30T10:24:12.516Z,32.63
2019-04-30T10:25:00.337Z,29.91
2019-04-30T10:25:59.326Z,29.30
2019-04-30T10:26:59.329Z,30.10
2019-04-30T10:27:59.831Z,31.30
2019-04-30T10:28:59.324Z,29.09
2019-04-30T10:29:59.471Z,31.40
2019-04-30T10:30:59.272Z,30.79
2019-04-30T10:31:59.272Z,31.39
2019-04-30T10:32:59.576Z,29.98
2019-04-30T10:33:59.241Z,29.47
2019-04-30T10:34:59.233Z,29.39
2019-04-30T10:35:59.507Z,31.51
2019-04-30T10:37:01.257Z,30.19
2019-04-30T10:37:59.627Z,31.42
2019-04-30T10:38:59.598Z,32.93
2019-04-30T10:39:59.730Z,31.81
2019-04-30T10:40:59.172Z,33.82
2019-04-30T10:41:59.166Z,33.91
2019-04-30T10:42:59.146Z,32.20
2019-04-30T10:43:59.256Z,31.39
2019-04-30T10:45:00.303Z,31.19
2019-04-30T10:45:59.113Z,29.98
2019-04-30T10:46:59.400Z,31.39
2019-04-30T10:47:59.305Z,31.71
2019-04-30T10:48:59.101Z,29.79
2019-04-30T10:49:59.072Z,32.91
2019-04-30T10:50:59.329Z,29.59
2019-04-30T10:52:01.081Z,30.41
2019-04-30T10:52:59.196Z,32.43
2019-04-30T10:53:59.244Z,31.84
2019-04-30T10:54:59.534Z,32.93
2019-04-30T10:55:59.463Z,30.51
2019-04-30T10:56:59.305Z,33.53
2019-04-30T10:57:59.375Z,32.93
2019-04-30T10:58:58.994Z,34.12
2019-04-30T10:59:58.967Z,32.09
2019-04-30T11:00:59.565Z,32.29
2019-04-30T11:01:59.246Z,29.69
2019-04-30T11:02:59.318Z,31.02
2019-04-30T11:03:58.925Z,31.12
2019-04-30T11:04:58.911Z,33.82
2019-04-30T11:05:58.900Z,32.43
2019-04-30T11:07:00.536Z,31.51
2019-04-30T11:07:59.413Z,31.71
2019-04-30T11:08:58.869Z,31.89
2019-04-30T11:09:58.988Z,32.20
2019-04-30T11:10:58.848Z,31.79
2019-04-30T11:11:59.383Z,31.79
2019-04-30T11:12:58.826Z,30.08
2019-04-30T11:13:58.816Z,32.09
2019-04-30T11:14:58.811Z,32.09
2019-04-30T11:16:06.494Z,33.39
2019-04-30T11:17:00.221Z,32.38
2019-04-30T11:17:59.675Z,31.98
2019-04-30T11:18:59.279Z,31.96
2019-04-30T11:19:59.284Z,31.36
2019-04-30T11:20:59.668Z,31.66
2019-04-30T11:21:58.920Z,32.46
2019-04-30T11:22:58.929Z,32.36
2019-04-30T11:23:59.430Z,32.26
2019-04-30T11:25:02.464Z,30.24
2019-04-30T11:26:00.130Z,32.56
2019-04-30T11:26:59.921Z,30.26
2019-04-30T11:27:59.319Z,29.65
2019-04-30T11:28:58.895Z,30.26
2019-04-30T11:30:03.318Z,33.69
2019-04-30T11:30:59.788Z,33.47
2019-04-30T11:31:58.844Z,32.26
2019-04-30T11:32:58.807Z,29.55
2019-04-30T11:33:58.602Z,30.15
2019-04-30T11:34:58.591Z,29.86
2019-04-30T11:36:03.110Z,31.49
2019-04-30T11:36:59.600Z,29.17
2019-04-30T11:37:58.559Z,29.68
2019-04-30T11:38:58.720Z,30.80
2019-04-30T11:39:58.537Z,32.29
2019-04-30T11:40:58.529Z,32.18
2019-04-30T11:41:58.516Z,32.58
2019-04-30T11:42:58.520Z,32.36
2019-04-30T11:43:59.504Z,30.05
2019-04-30T11:44:58.668Z,33.27
2019-04-30T11:46:00.233Z,30.67
2019-04-30T11:46:59.568Z,31.49
2019-04-30T11:48:00.408Z,31.98
2019-04-30T11:48:58.762Z,33.69
2019-04-30T11:49:58.431Z,33.59
2019-04-30T11:50:59.532Z,32.38
2019-04-30T11:51:58.422Z,31.68
2019-04-30T11:53:14.029Z,31.48
2019-04-30T11:53:59.512Z,33.69
2019-04-30T11:54:59.665Z,30.48
2019-04-30T11:55:59.207Z,31.39
2019-04-30T11:56:58.813Z,33.80
2019-04-30T11:57:59.242Z,33.48
2019-04-30T11:58:58.857Z,32.18
2019-04-30T11:59:58.325Z,32.28
2019-04-30T12:00:59.269Z,31.98
2019-04-30T12:01:58.303Z,30.96
2019-04-30T12:02:59.341Z,30.15
2019-04-30T12:03:59.814Z,30.07
2019-04-30T12:04:58.269Z,31.77
2019-04-30T12:05:58.942Z,32.36
2019-04-30T12:06:58.251Z,32.76
2019-04-30T12:07:59.752Z,33.67
2019-04-30T12:08:59.129Z,32.45
2019-04-30T12:09:59.564Z,32.15
2019-04-30T12:10:58.206Z,33.34
2019-04-30T12:11:58.952Z,32.93
2019-04-30T12:12:58.704Z,32.45
2019-04-30T12:13:58.173Z,32.56
2019-04-30T12:15:00.247Z,33.57
2019-04-30T12:15:58.852Z,33.89
2019-04-30T12:16:58.141Z,35.10
2019-04-30T12:17:58.159Z,34.38
2019-04-30T12:18:58.980Z,33.25
2019-04-30T12:19:58.683Z,32.45
2019-04-30T12:20:58.098Z,32.05
2019-04-30T12:21:58.088Z,31.23
2019-04-30T12:22:59.173Z,32.73
2019-04-30T12:23:58.076Z,32.33
2019-04-30T12:25:03.287Z,33.34
2019-04-30T12:26:02.360Z,33.04
2019-04-30T12:26:58.034Z,32.53
2019-04-30T12:27:59.607Z,32.73
2019-04-30T12:28:58.019Z,34.24
2019-04-30T12:29:59.461Z,32.14
2019-04-30T12:30:58.890Z,31.23
2019-04-30T12:31:57.979Z,33.74
2019-04-30T12:32:59.075Z,34.22
2019-04-30T12:33:57.965Z,33.84
2019-04-30T12:34:57.946Z,33.02
2019-04-30T12:35:59.583Z,32.02
2019-04-30T12:36:59.645Z,32.12
2019-04-30T12:37:58.852Z,31.51
2019-04-30T12:38:57.912Z,31.73
2019-04-30T12:39:59.367Z,33.83
2019-04-30T12:40:57.882Z,33.72
2019-04-30T12:41:58.946Z,31.13
2019-04-30T12:42:59.831Z,32.73
2019-04-30T12:43:57.865Z,33.75
2019-04-30T12:44:59.453Z,32.15
2019-04-30T12:46:03.406Z,33.15
2019-04-30T12:46:58.824Z,33.65
2019-04-30T12:47:57.807Z,34.36
2019-04-30T12:48:59.579Z,33.55
2019-04-30T12:50:00.883Z,34.46
2019-04-30T12:50:59.002Z,34.56
2019-04-30T12:51:58.756Z,31.26